This is the latest recevied weather packets stored in our database for station/object IW8ELN-10. If no packets are shown the sender has not sent any weather packets the latest 10 day(s).
| Time | Temp. | Humidity | Pressure | Rain* | Wind** | Luminosity | Snow |
|---|---|---|---|---|---|---|---|
| 1777862578 | 12.22° C | 59% | 993.7 hPa | - | - | - | - |
| 1777858985 | 12.78° C | 59% | 993.7 hPa | - | - | - | - |
| 1777855378 | 12.78° C | 60% | 994.7 hPa | - | - | - | - |
| 1777851785 | 12.78° C | 61% | 993.6 hPa | - | - | - | - |
| 1777848181 | 13.33° C | 61% | 993.8 hPa | - | - | - | - |
| 1777837382 | 14.44° C | 60% | 992.9 hPa | - | - | - | - |
| 1777833778 | 15° C | 59% | 992.3 hPa | - | - | - | - |
| 1777830178 | 15.56° C | 54% | 991.6 hPa | - | - | - | - |
| 1777826578 | 16.67° C | 51% | 991.4 hPa | - | - | - | - |
| 1777819384 | 17.22° C | 45% | 991 hPa | - | - | - | - |
| 1777815777 | 15.56° C | 47% | 991.4 hPa | - | - | - | - |
| 1777812177 | 15.56° C | 47% | 992 hPa | - | - | - | - |
| 1777808577 | 14.44° C | 48% | 992.5 hPa | - | - | - | - |
| 1777804990 | 14.44° C | 47% | 998.3 hPa | - | - | - | - |
| 1777801384 | 13.33° C | 53% | 993.6 hPa | - | - | - | - |
| 1777797777 | 12.78° C | 55% | 994.2 hPa | - | - | - | - |
| 1777794177 | 11.67° C | 54% | 994.6 hPa | - | - | - | - |
| 1777790577 | 11.11° C | 54% | 995.1 hPa | - | - | - | - |
| 1777786983 | 11.11° C | 52% | 995.4 hPa | - | - | - | - |
| 1777779783 | 11.11° C | 51% | 995 hPa | - | - | - | - |
| 1777776183 | 11.11° C | 52% | 995 hPa | - | - | - | - |
| 1777772583 | 11.11° C | 52% | 995.4 hPa | - | - | - | - |
| 1777768988 | 11.67° C | 52% | 995.5 hPa | - | - | - | - |
| 1777765382 | 12.22° C | 53% | 995.9 hPa | - | - | - | - |
| 1777761782 | 12.22° C | 53% | 996.4 hPa | - | - | - | - |
* Rain since midnight (hover to see other rain measurements)
** Current wind speed in m/s (hover to see current wind gust speed)